createdAt,value
2022-08-30T00:01:06.530Z,1.92
2022-08-30T00:03:55.031Z,1.98
2022-08-30T00:06:40.942Z,2.50
2022-08-30T00:09:26.265Z,2.38
2022-08-30T00:12:11.575Z,2.50
2022-08-30T00:14:57.095Z,2.40
2022-08-30T00:17:43.483Z,2.58
2022-08-30T00:20:31.491Z,2.83
2022-08-30T00:23:18.503Z,2.78
2022-08-30T00:26:04.972Z,2.42
2022-08-30T00:28:50.195Z,2.70
2022-08-30T00:31:35.822Z,2.85
2022-08-30T00:34:21.172Z,3.75
2022-08-30T00:37:06.555Z,3.00
2022-08-30T00:39:52.241Z,3.28
2022-08-30T00:42:39.597Z,3.38
2022-08-30T00:45:30.497Z,3.33
2022-08-30T00:48:16.144Z,3.17
2022-08-30T00:51:05.300Z,3.63
2022-08-30T00:53:57.022Z,4.25
2022-08-30T00:56:42.400Z,4.43
2022-08-30T00:59:29.071Z,4.13
2022-08-30T01:02:16.142Z,3.50
2022-08-30T01:05:04.174Z,4.57
2022-08-30T01:07:49.930Z,4.15
2022-08-30T01:10:37.435Z,4.03
2022-08-30T01:13:25.393Z,4.25
2022-08-30T01:16:11.506Z,3.90
2022-08-30T01:18:58.508Z,3.97
2022-08-30T01:21:51.369Z,4.35
2022-08-30T01:24:37.116Z,4.80
2022-08-30T01:27:24.249Z,4.35
2022-08-30T01:30:10.629Z,4.32
2022-08-30T01:33:04.191Z,3.28
2022-08-30T01:36:12.251Z,3.33
2022-08-30T01:38:58.470Z,3.30
2022-08-30T01:41:44.307Z,3.00
2022-08-30T01:44:29.718Z,2.95
2022-08-30T01:47:18.354Z,3.20
2022-08-30T01:50:05.769Z,2.90
2022-08-30T01:52:51.297Z,2.90
2022-08-30T01:55:38.667Z,2.60
2022-08-30T01:58:24.268Z,2.80
2022-08-30T02:01:12.907Z,3.08
2022-08-30T02:03:58.680Z,2.92
2022-08-30T02:06:44.755Z,2.80
2022-08-30T02:09:30.249Z,2.95
2022-08-30T02:12:16.105Z,2.90
2022-08-30T02:15:01.457Z,2.83
2022-08-30T02:17:47.169Z,2.75
2022-08-30T02:20:32.408Z,2.65
2022-08-30T02:23:18.118Z,2.80
2022-08-30T02:26:04.912Z,3.00
2022-08-30T02:28:50.503Z,2.80
2022-08-30T02:31:35.676Z,3.17
2022-08-30T02:34:21.203Z,2.83
2022-08-30T02:37:06.607Z,2.83
2022-08-30T02:39:52.661Z,2.90
2022-08-30T02:42:37.897Z,3.80
2022-08-30T02:45:24.362Z,3.50
2022-08-30T02:48:10.061Z,2.88
2022-08-30T02:50:55.281Z,2.88
2022-08-30T02:53:41.994Z,2.90
2022-08-30T02:56:28.636Z,2.85
2022-08-30T02:59:15.323Z,3.20
2022-08-30T03:02:00.668Z,3.78
2022-08-30T03:04:46.286Z,3.40
2022-08-30T03:07:31.890Z,3.53
2022-08-30T03:10:18.257Z,3.60
2022-08-30T03:13:03.602Z,3.28
2022-08-30T03:15:51.885Z,3.55
2022-08-30T03:18:37.744Z,3.70
2022-08-30T03:21:23.107Z,4.00
2022-08-30T03:24:08.869Z,3.97
2022-08-30T03:26:53.934Z,3.97
2022-08-30T03:29:39.589Z,3.60
2022-08-30T03:32:25.195Z,3.95
2022-08-30T03:35:12.404Z,3.97
2022-08-30T03:37:59.137Z,4.65
2022-08-30T03:40:44.840Z,4.68
2022-08-30T03:43:30.539Z,5.00
2022-08-30T03:46:17.124Z,4.82
2022-08-30T03:49:02.637Z,4.82
2022-08-30T03:51:49.140Z,5.57
2022-08-30T03:54:34.519Z,4.68
2022-08-30T03:57:24.306Z,4.68
2022-08-30T04:00:11.458Z,4.55
2022-08-30T04:03:00.142Z,5.07
2022-08-30T04:05:45.334Z,6.03
2022-08-30T04:08:30.540Z,4.97
2022-08-30T04:11:16.448Z,4.90
2022-08-30T04:14:02.148Z,4.82
2022-08-30T04:16:47.485Z,4.20
2022-08-30T04:19:32.934Z,4.45
2022-08-30T04:22:18.144Z,4.93
2022-08-30T04:25:05.174Z,5.00
2022-08-30T04:27:50.322Z,4.40
2022-08-30T04:30:39.931Z,4.30
2022-08-30T04:33:25.193Z,4.57
2022-08-30T04:36:11.508Z,5.82
2022-08-30T04:38:57.253Z,5.00
2022-08-30T04:41:42.761Z,5.32
2022-08-30T04:44:28.089Z,4.50
2022-08-30T04:47:14.864Z,4.40
2022-08-30T04:49:59.961Z,4.38
2022-08-30T04:52:45.801Z,4.80
2022-08-30T04:55:31.126Z,5.32
2022-08-30T04:58:16.325Z,4.72
2022-08-30T05:01:01.784Z,5.90
2022-08-30T05:03:48.840Z,5.30
2022-08-30T05:06:34.587Z,5.20
2022-08-30T05:09:21.512Z,4.57
2022-08-30T05:12:06.845Z,4.75
2022-08-30T05:14:52.630Z,4.10
2022-08-30T05:17:39.479Z,5.47
2022-08-30T05:20:24.805Z,5.13
2022-08-30T05:23:11.071Z,4.63
2022-08-30T05:25:56.453Z,4.47
2022-08-30T05:28:42.321Z,4.70
2022-08-30T05:31:33.102Z,4.97
2022-08-30T05:34:18.460Z,4.30
2022-08-30T05:37:04.121Z,4.82
2022-08-30T05:39:51.303Z,3.63
2022-08-30T05:42:38.355Z,4.38
2022-08-30T05:45:23.636Z,4.13
2022-08-30T05:48:08.973Z,3.83
2022-08-30T05:51:05.211Z,3.70
2022-08-30T05:53:52.863Z,3.70
2022-08-30T05:56:39.240Z,3.63
2022-08-30T05:59:24.426Z,3.35
2022-08-30T06:02:10.179Z,3.53
2022-08-30T06:04:56.072Z,3.22
2022-08-30T06:07:43.530Z,2.97
2022-08-30T06:10:28.967Z,2.80
2022-08-30T06:13:15.163Z,3.10
2022-08-30T06:16:00.475Z,2.80
2022-08-30T06:18:46.133Z,2.50
2022-08-30T06:21:34.505Z,2.88
2022-08-30T06:24:27.830Z,2.38
2022-08-30T06:27:21.393Z,2.37
2022-08-30T06:30:08.520Z,2.30
2022-08-30T06:32:54.613Z,2.20
2022-08-30T06:35:56.717Z,2.30
2022-08-30T06:38:45.311Z,1.50
2022-08-30T06:41:33.684Z,2.35
2022-08-30T06:44:19.262Z,1.60
2022-08-30T06:47:05.684Z,1.60
2022-08-30T06:49:51.421Z,1.73
2022-08-30T06:52:37.223Z,1.85
2022-08-30T06:55:22.588Z,1.75
2022-08-30T06:58:07.944Z,1.70
2022-08-30T07:00:54.080Z,1.38
2022-08-30T07:03:39.522Z,1.52
2022-08-30T07:06:25.799Z,1.65
2022-08-30T07:09:11.108Z,1.20
2022-08-30T07:11:56.465Z,1.25
2022-08-30T07:14:42.999Z,1.42
2022-08-30T07:17:47.406Z,1.20
2022-08-30T07:20:39.955Z,1.20
2022-08-30T07:23:26.076Z,1.17
2022-08-30T07:26:15.580Z,1.20
2022-08-30T07:29:01.954Z,1.30
2022-08-30T07:31:48.146Z,1.20
2022-08-30T07:34:33.580Z,1.20
2022-08-30T07:37:19.037Z,1.10
2022-08-30T07:40:06.225Z,1.20
2022-08-30T07:42:51.570Z,1.00
2022-08-30T07:45:38.568Z,1.20
2022-08-30T07:48:23.812Z,1.20
2022-08-30T07:51:13.836Z,1.10
2022-08-30T07:54:00.361Z,1.00
2022-08-30T07:56:45.669Z,0.90
2022-08-30T07:59:33.062Z,0.80
2022-08-30T08:02:22.550Z,0.80
2022-08-30T08:05:12.788Z,0.88
2022-08-30T08:08:00.800Z,0.80
2022-08-30T08:10:45.920Z,0.90
2022-08-30T08:13:32.801Z,1.10
2022-08-30T08:16:24.243Z,1.20
2022-08-30T08:19:09.587Z,1.25
2022-08-30T08:22:19.405Z,1.02
2022-08-30T08:25:02.414Z,0.90
2022-08-30T08:27:50.657Z,1.00
2022-08-30T08:30:38.186Z,1.20
2022-08-30T08:33:24.050Z,1.20
2022-08-30T08:36:10.003Z,0.95
2022-08-30T08:38:55.473Z,0.90
2022-08-30T08:42:13.976Z,1.10
2022-08-30T08:45:10.796Z,1.05
2022-08-30T08:48:04.899Z,0.88
2022-08-30T08:51:08.624Z,0.90
2022-08-30T08:54:08.450Z,1.00
2022-08-30T08:56:54.352Z,0.82
2022-08-30T08:59:40.050Z,1.58
2022-08-30T09:02:27.611Z,0.85
2022-08-30T09:05:23.102Z,1.20
2022-08-30T09:08:14.047Z,0.80
2022-08-30T09:11:04.352Z,1.10
2022-08-30T09:13:49.603Z,1.13
2022-08-30T09:16:51.631Z,0.90
2022-08-30T09:19:52.347Z,1.00
2022-08-30T09:22:42.684Z,1.10
2022-08-30T09:25:32.584Z,1.38
2022-08-30T09:28:27.713Z,1.63
2022-08-30T09:31:29.137Z,1.50
2022-08-30T09:34:20.396Z,1.20
2022-08-30T09:37:31.761Z,1.08
2022-08-30T09:40:32.520Z,1.10
2022-08-30T09:43:23.218Z,1.20
2022-08-30T09:46:16.570Z,1.30
2022-08-30T09:49:02.102Z,1.52
2022-08-30T09:51:57.580Z,1.45
2022-08-30T09:55:01.021Z,1.33
2022-08-30T09:58:14.704Z,1.45
2022-08-30T10:01:24.701Z,1.27
2022-08-30T10:04:34.659Z,1.35
2022-08-30T10:07:31.268Z,1.83
2022-08-30T10:10:36.546Z,1.40
2022-08-30T10:13:38.431Z,1.70
2022-08-30T10:16:45.589Z,1.45
2022-08-30T10:19:59.035Z,1.50
2022-08-30T10:22:46.982Z,1.60
2022-08-30T10:25:44.277Z,1.70
2022-08-30T10:28:51.225Z,1.60
2022-08-30T10:31:46.641Z,2.10
2022-08-30T10:34:42.663Z,1.85
2022-08-30T10:37:31.396Z,1.83
2022-08-30T10:40:50.041Z,1.65
2022-08-30T10:43:45.673Z,1.40
2022-08-30T10:46:48.245Z,1.60
2022-08-30T10:49:40.652Z,1.90
2022-08-30T10:52:47.499Z,1.88
2022-08-30T10:55:37.440Z,1.75
2022-08-30T10:58:24.106Z,1.45
2022-08-30T11:01:49.661Z,1.45
2022-08-30T11:05:02.413Z,1.50
2022-08-30T11:08:28.557Z,1.40
2022-08-30T11:11:19.859Z,1.67
2022-08-30T11:16:54.814Z,1.45
2022-08-30T11:19:41.565Z,1.20
2022-08-30T11:22:38.250Z,1.40
2022-08-30T11:25:47.441Z,1.35
2022-08-30T11:28:45.268Z,1.50
2022-08-30T11:31:40.014Z,1.50
2022-08-30T11:34:44.901Z,1.30
2022-08-30T11:37:44.693Z,1.40
2022-08-30T11:40:49.147Z,2.08
2022-08-30T11:43:34.333Z,1.52
2022-08-30T11:46:26.384Z,1.50
2022-08-30T11:49:14.364Z,1.73
2022-08-30T11:52:26.560Z,1.50
2022-08-30T11:55:26.159Z,1.52
2022-08-30T11:58:36.561Z,1.40
2022-08-30T12:01:51.725Z,1.55
2022-08-30T12:04:47.167Z,1.83
2022-08-30T12:08:01.852Z,1.50
2022-08-30T12:10:53.884Z,1.88
2022-08-30T12:13:44.824Z,1.92
2022-08-30T12:17:02.950Z,1.48
2022-08-30T12:19:50.481Z,1.65
2022-08-30T12:22:38.149Z,1.70
2022-08-30T12:25:26.510Z,1.80
2022-08-30T12:28:22.180Z,1.60
2022-08-30T12:31:12.615Z,1.70
2022-08-30T12:34:01.216Z,1.88
2022-08-30T12:37:04.553Z,1.70
2022-08-30T12:40:09.852Z,1.90
2022-08-30T12:43:01.479Z,1.50
2022-08-30T12:45:50.900Z,1.70
2022-08-30T12:48:38.901Z,1.48
2022-08-30T12:51:29.184Z,1.75
2022-08-30T12:54:21.965Z,1.50
2022-08-30T12:57:25.694Z,1.33
2022-08-30T13:00:32.519Z,1.42
2022-08-30T13:03:36.725Z,1.50
2022-08-30T13:06:43.718Z,1.50
2022-08-30T13:09:33.838Z,1.30
2022-08-30T13:12:27.207Z,1.38
2022-08-30T13:15:19.855Z,1.55
2022-08-30T13:18:27.589Z,1.30
2022-08-30T13:21:27.212Z,1.42
2022-08-30T13:24:13.676Z,1.50
2022-08-30T13:27:03.827Z,1.30
2022-08-30T13:29:49.406Z,1.20
2022-08-30T13:32:38.990Z,1.00
2022-08-30T13:35:25.047Z,1.02
2022-08-30T13:38:10.780Z,1.35
2022-08-30T13:40:56.336Z,1.30
2022-08-30T13:46:54.368Z,1.45
2022-08-30T13:49:44.094Z,0.90
2022-08-30T13:52:30.273Z,1.00
2022-08-30T13:55:15.696Z,1.15
2022-08-30T13:58:01.697Z,1.08
2022-08-30T14:00:48.193Z,1.08
2022-08-30T14:03:33.439Z,1.10
2022-08-30T14:06:32.763Z,1.10
2022-08-30T14:09:20.494Z,1.20
2022-08-30T14:12:07.094Z,1.20
2022-08-30T14:14:54.354Z,1.23
2022-08-30T14:17:42.788Z,1.33
2022-08-30T14:20:29.492Z,1.30
2022-08-30T14:23:15.161Z,1.10
2022-08-30T14:26:05.249Z,1.05
2022-08-30T14:28:51.785Z,1.35
2022-08-30T14:31:39.147Z,1.30
2022-08-30T14:34:25.096Z,1.30
2022-08-30T14:37:10.351Z,1.20
2022-08-30T14:39:55.781Z,1.15
2022-08-30T14:42:41.097Z,1.08
2022-08-30T14:45:27.056Z,1.20
2022-08-30T14:48:12.611Z,0.98
2022-08-30T14:51:00.524Z,1.10
2022-08-30T14:53:46.946Z,1.17
2022-08-30T14:56:32.317Z,1.20
2022-08-30T14:59:18.311Z,1.10
2022-08-30T15:02:04.992Z,1.00
2022-08-30T15:04:50.084Z,1.25
2022-08-30T15:07:35.916Z,1.02
2022-08-30T15:10:22.290Z,1.20
2022-08-30T15:13:09.118Z,1.05
2022-08-30T15:15:54.699Z,1.17
2022-08-30T15:18:41.736Z,1.00
2022-08-30T15:21:33.468Z,1.27
2022-08-30T15:27:14.884Z,1.23
2022-08-30T15:30:00.425Z,1.10
2022-08-30T15:32:46.220Z,1.20
2022-08-30T15:35:31.916Z,1.00
2022-08-30T15:38:18.973Z,1.13
2022-08-30T15:41:09.680Z,1.08
2022-08-30T15:43:56.624Z,1.02
2022-08-30T15:46:45.090Z,1.10
2022-08-30T15:49:30.623Z,1.10
2022-08-30T15:52:16.731Z,1.27
2022-08-30T15:55:02.524Z,0.90
2022-08-30T15:57:48.183Z,0.95
2022-08-30T16:00:33.140Z,0.98
2022-08-30T16:03:18.996Z,0.90
2022-08-30T16:06:09.581Z,1.02
2022-08-30T16:08:56.154Z,1.10
2022-08-30T16:11:42.047Z,1.10
2022-08-30T16:14:27.769Z,0.95
2022-08-30T16:17:13.094Z,1.20
2022-08-30T16:19:59.063Z,0.90
2022-08-30T16:22:46.101Z,1.10
2022-08-30T16:25:40.961Z,1.05
2022-08-30T16:28:27.218Z,1.10
2022-08-30T16:31:15.288Z,1.00
2022-08-30T16:34:02.342Z,1.10
2022-08-30T16:36:49.947Z,1.10
2022-08-30T16:39:35.556Z,0.90
2022-08-30T16:42:21.395Z,1.20
2022-08-30T16:45:10.390Z,1.10
2022-08-30T16:47:56.438Z,1.13
2022-08-30T16:50:44.465Z,1.05
2022-08-30T16:53:30.137Z,1.30
2022-08-30T16:56:19.074Z,1.10
2022-08-30T16:59:10.937Z,1.10
2022-08-30T17:01:56.942Z,0.95
2022-08-30T17:04:42.676Z,0.85
2022-08-30T17:07:29.376Z,0.93
2022-08-30T17:10:14.968Z,1.00
2022-08-30T17:13:05.545Z,1.30
2022-08-30T17:15:51.372Z,1.15
2022-08-30T17:18:37.203Z,1.20
2022-08-30T17:21:23.279Z,1.20
2022-08-30T17:24:08.348Z,1.40
2022-08-30T17:26:54.635Z,1.30
2022-08-30T17:29:40.356Z,1.33
2022-08-30T17:32:25.968Z,1.40
2022-08-30T17:35:11.720Z,1.20
2022-08-30T17:37:57.174Z,1.13
2022-08-30T17:40:44.094Z,1.20
2022-08-30T17:43:29.603Z,1.30
2022-08-30T17:46:20.601Z,1.20
2022-08-30T17:49:10.413Z,1.20
2022-08-30T17:51:57.666Z,1.60
2022-08-30T17:54:43.320Z,1.20
2022-08-30T17:57:29.653Z,1.35
2022-08-30T18:00:15.673Z,1.73
2022-08-30T18:03:01.540Z,1.80
2022-08-30T18:05:47.980Z,1.83
2022-08-30T18:08:34.590Z,1.42
2022-08-30T18:11:19.932Z,1.50
2022-08-30T18:14:06.451Z,1.50
2022-08-30T18:16:54.313Z,1.98
2022-08-30T18:19:45.943Z,1.30
2022-08-30T18:22:32.436Z,1.50
2022-08-30T18:25:18.261Z,1.27
2022-08-30T18:28:04.937Z,1.38
2022-08-30T18:30:55.944Z,1.63
2022-08-30T18:33:41.618Z,1.50
2022-08-30T18:36:29.381Z,2.53
2022-08-30T18:39:14.776Z,1.45
2022-08-30T18:41:59.919Z,1.80
2022-08-30T18:44:45.331Z,1.80
2022-08-30T18:47:30.949Z,1.85
2022-08-30T18:50:16.610Z,1.65
2022-08-30T18:53:01.784Z,1.38
2022-08-30T18:55:48.416Z,1.85
2022-08-30T18:58:33.486Z,1.90
2022-08-30T19:01:22.831Z,1.58
2022-08-30T19:04:08.272Z,1.85
2022-08-30T19:06:53.817Z,1.80
2022-08-30T19:09:41.043Z,1.70
2022-08-30T19:12:28.486Z,1.52
2022-08-30T19:15:14.078Z,1.83
2022-08-30T19:18:00.682Z,1.88
2022-08-30T19:20:47.476Z,1.80
2022-08-30T19:23:36.436Z,1.95
2022-08-30T19:26:21.900Z,2.15
2022-08-30T19:29:07.461Z,2.30
2022-08-30T19:31:53.324Z,2.15
2022-08-30T19:34:38.828Z,2.33
2022-08-30T19:37:24.768Z,2.88
2022-08-30T19:40:14.482Z,2.92
2022-08-30T19:43:00.272Z,3.08
2022-08-30T19:45:53.678Z,3.03
2022-08-30T19:48:42.913Z,2.90
2022-08-30T19:51:28.575Z,2.78
2022-08-30T19:54:15.133Z,2.90
2022-08-30T19:57:00.577Z,3.10
2022-08-30T19:59:45.970Z,2.78
2022-08-30T20:02:31.639Z,2.67
2022-08-30T20:05:17.093Z,2.72
2022-08-30T20:08:03.043Z,2.40
2022-08-30T20:10:48.703Z,2.85
2022-08-30T20:13:34.336Z,2.70
2022-08-30T20:16:19.832Z,2.50
2022-08-30T20:19:10.975Z,2.40
2022-08-30T20:22:05.601Z,2.20
2022-08-30T20:24:53.552Z,2.10
2022-08-30T20:27:41.552Z,1.83
2022-08-30T20:30:27.653Z,1.67
2022-08-30T20:33:13.117Z,1.60
2022-08-30T20:36:02.486Z,1.77
2022-08-30T20:38:48.427Z,2.00
2022-08-30T20:41:33.877Z,1.42
2022-08-30T20:44:19.333Z,1.45
2022-08-30T20:47:05.139Z,1.88
2022-08-30T20:49:50.184Z,1.25
2022-08-30T20:52:35.984Z,1.23
2022-08-30T20:55:21.196Z,1.40
2022-08-30T20:58:06.769Z,1.38
2022-08-30T21:00:53.601Z,1.33
2022-08-30T21:03:39.742Z,1.15
2022-08-30T21:06:25.476Z,1.30
2022-08-30T21:09:11.514Z,1.20
2022-08-30T21:11:57.069Z,1.00
2022-08-30T21:14:42.657Z,1.27
2022-08-30T21:17:30.087Z,1.00
2022-08-30T21:20:16.025Z,1.48
2022-08-30T21:23:01.623Z,1.15
2022-08-30T21:25:47.175Z,1.13
2022-08-30T21:28:32.664Z,1.20
2022-08-30T21:31:24.002Z,1.25
2022-08-30T21:34:15.884Z,1.60
2022-08-30T21:37:03.330Z,1.40
2022-08-30T21:39:49.175Z,1.10
2022-08-30T21:42:35.663Z,1.42
2022-08-30T21:45:20.732Z,0.95
2022-08-30T21:48:06.890Z,1.15
2022-08-30T21:50:52.108Z,1.13
2022-08-30T21:53:37.761Z,1.10
2022-08-30T21:56:23.545Z,1.00
2022-08-30T21:59:10.344Z,1.10
2022-08-30T22:01:55.560Z,1.08
2022-08-30T22:04:42.001Z,0.90
2022-08-30T22:07:27.614Z,0.90
2022-08-30T22:10:13.532Z,0.93
2022-08-30T22:12:59.049Z,1.13
2022-08-30T22:15:44.321Z,1.02
2022-08-30T22:18:29.872Z,1.20
2022-08-30T22:21:18.067Z,1.10
2022-08-30T22:24:04.848Z,1.10
2022-08-30T22:26:50.256Z,1.38
2022-08-30T22:29:37.416Z,0.98
2022-08-30T22:32:22.944Z,1.00
2022-08-30T22:35:08.393Z,1.10
2022-08-30T22:37:53.902Z,1.05
2022-08-30T22:40:45.348Z,1.10
2022-08-30T22:43:31.001Z,1.10
2022-08-30T22:46:18.540Z,1.23
2022-08-30T22:49:14.729Z,1.10
2022-08-30T22:51:59.860Z,1.00
2022-08-30T22:54:47.025Z,1.20
2022-08-30T22:57:35.480Z,1.17
2022-08-30T23:00:21.234Z,1.23
2022-08-30T23:03:06.648Z,1.05
2022-08-30T23:05:52.733Z,1.30
2022-08-30T23:08:38.017Z,0.90
2022-08-30T23:11:24.016Z,1.00
2022-08-30T23:14:09.404Z,0.90
2022-08-30T23:16:55.047Z,0.90
2022-08-30T23:19:40.756Z,0.93
2022-08-30T23:22:26.986Z,0.95
2022-08-30T23:25:32.102Z,0.82
2022-08-30T23:28:45.688Z,1.20
2022-08-30T23:31:50.029Z,0.90
2022-08-30T23:34:54.755Z,1.10
2022-08-30T23:37:58.431Z,0.90
2022-08-30T23:41:03.101Z,0.90
2022-08-30T23:44:06.866Z,0.90
2022-08-30T23:47:11.728Z,1.10
2022-08-30T23:50:15.408Z,1.20
2022-08-30T23:53:19.711Z,0.85
2022-08-30T23:56:28.136Z,1.05
2022-08-30T23:59:32.239Z,0.80
